sensor_id;sensor_type;location;lat;lon;timestamp;P1;durP1;ratioP1;P2;durP2;ratioP2
66739;SDS011;53653;52.188;8.602;2022-08-01T00:00:32;12.52;;;5.35;;
66739;SDS011;53653;52.188;8.602;2022-08-01T00:02:57;10.87;;;4.70;;
66739;SDS011;53653;52.188;8.602;2022-08-01T00:05:23;9.97;;;4.67;;
66739;SDS011;53653;52.188;8.602;2022-08-01T00:07:48;8.05;;;4.18;;
66739;SDS011;53653;52.188;8.602;2022-08-01T00:10:15;10.60;;;4.53;;
66739;SDS011;53653;52.188;8.602;2022-08-01T00:12:41;9.98;;;4.00;;
66739;SDS011;53653;52.188;8.602;2022-08-01T00:15:08;11.17;;;4.27;;
66739;SDS011;53653;52.188;8.602;2022-08-01T00:17:35;8.70;;;4.03;;
66739;SDS011;53653;52.188;8.602;2022-08-01T00:20:02;9.85;;;4.40;;
66739;SDS011;53653;52.188;8.602;2022-08-01T00:22:30;9.32;;;4.15;;
66739;SDS011;53653;52.188;8.602;2022-08-01T00:24:56;8.90;;;4.57;;
66739;SDS011;53653;52.188;8.602;2022-08-01T00:27:21;9.98;;;4.72;;
66739;SDS011;53653;52.188;8.602;2022-08-01T00:29:47;9.83;;;4.50;;
66739;SDS011;53653;52.188;8.602;2022-08-01T00:32:12;11.27;;;4.83;;
66739;SDS011;53653;52.188;8.602;2022-08-01T00:34:37;9.57;;;4.67;;
66739;SDS011;53653;52.188;8.602;2022-08-01T00:37:03;9.57;;;4.60;;
66739;SDS011;53653;52.188;8.602;2022-08-01T00:39:28;10.13;;;4.88;;
66739;SDS011;53653;52.188;8.602;2022-08-01T00:41:54;13.37;;;4.80;;
66739;SDS011;53653;52.188;8.602;2022-08-01T00:44:19;9.77;;;4.67;;
66739;SDS011;53653;52.188;8.602;2022-08-01T00:46:44;11.63;;;5.23;;
66739;SDS011;53653;52.188;8.602;2022-08-01T00:49:10;9.60;;;5.17;;
66739;SDS011;53653;52.188;8.602;2022-08-01T00:51:35;11.27;;;4.75;;
66739;SDS011;53653;52.188;8.602;2022-08-01T00:54:01;13.80;;;5.97;;
66739;SDS011;53653;52.188;8.602;2022-08-01T00:56:26;10.03;;;5.30;;
66739;SDS011;53653;52.188;8.602;2022-08-01T00:58:53;11.98;;;5.72;;
66739;SDS011;53653;52.188;8.602;2022-08-01T01:01:19;12.43;;;5.60;;
66739;SDS011;53653;52.188;8.602;2022-08-01T01:03:50;11.75;;;5.70;;
66739;SDS011;53653;52.188;8.602;2022-08-01T01:11:26;9.80;;;5.10;;
66739;SDS011;53653;52.188;8.602;2022-08-01T01:14:08;10.70;;;4.93;;
66739;SDS011;53653;52.188;8.602;2022-08-01T01:16:39;10.35;;;4.72;;
66739;SDS011;53653;52.188;8.602;2022-08-01T01:19:09;10.77;;;4.93;;
66739;SDS011;53653;52.188;8.602;2022-08-01T01:27:05;11.68;;;4.40;;
66739;SDS011;53653;52.188;8.602;2022-08-01T01:29:33;9.40;;;4.35;;
66739;SDS011;53653;52.188;8.602;2022-08-01T01:32:14;13.97;;;4.60;;
66739;SDS011;53653;52.188;8.602;2022-08-01T01:34:43;9.05;;;4.22;;
66739;SDS011;53653;52.188;8.602;2022-08-01T01:37:12;9.93;;;4.13;;
66739;SDS011;53653;52.188;8.602;2022-08-01T01:39:41;8.48;;;3.92;;
66739;SDS011;53653;52.188;8.602;2022-08-01T01:42:07;10.02;;;4.00;;
66739;SDS011;53653;52.188;8.602;2022-08-01T01:44:33;9.63;;;4.00;;
66739;SDS011;53653;52.188;8.602;2022-08-01T01:47:00;7.70;;;3.60;;
66739;SDS011;53653;52.188;8.602;2022-08-01T01:49:27;10.40;;;3.92;;
66739;SDS011;53653;52.188;8.602;2022-08-01T01:51:54;10.35;;;3.80;;
66739;SDS011;53653;52.188;8.602;2022-08-01T01:54:22;12.60;;;4.05;;
66739;SDS011;53653;52.188;8.602;2022-08-01T01:56:49;8.60;;;3.70;;
66739;SDS011;53653;52.188;8.602;2022-08-01T01:59:24;10.75;;;3.88;;
66739;SDS011;53653;52.188;8.602;2022-08-01T02:01:53;9.48;;;4.47;;
66739;SDS011;53653;52.188;8.602;2022-08-01T02:04:21;11.30;;;4.40;;
66739;SDS011;53653;52.188;8.602;2022-08-01T02:06:48;9.35;;;4.38;;
66739;SDS011;53653;52.188;8.602;2022-08-01T02:09:18;11.03;;;4.60;;
66739;SDS011;53653;52.188;8.602;2022-08-01T02:11:48;10.98;;;4.53;;
66739;SDS011;53653;52.188;8.602;2022-08-01T02:14:15;9.68;;;4.70;;
66739;SDS011;53653;52.188;8.602;2022-08-01T02:16:44;9.32;;;4.10;;
66739;SDS011;53653;52.188;8.602;2022-08-01T02:19:12;10.50;;;5.15;;
66739;SDS011;53653;52.188;8.602;2022-08-01T02:24:52;9.23;;;4.78;;
66739;SDS011;53653;52.188;8.602;2022-08-01T02:26:59;10.30;;;4.70;;
66739;SDS011;53653;52.188;8.602;2022-08-01T02:29:32;12.02;;;4.78;;
66739;SDS011;53653;52.188;8.602;2022-08-01T02:32:04;13.63;;;5.18;;
66739;SDS011;53653;52.188;8.602;2022-08-01T02:34:32;10.23;;;4.57;;
66739;SDS011;53653;52.188;8.602;2022-08-01T02:37:01;8.60;;;4.20;;
66739;SDS011;53653;52.188;8.602;2022-08-01T02:39:28;8.05;;;4.25;;
66739;SDS011;53653;52.188;8.602;2022-08-01T02:41:57;10.93;;;4.45;;
66739;SDS011;53653;52.188;8.602;2022-08-01T02:44:32;10.25;;;4.43;;
66739;SDS011;53653;52.188;8.602;2022-08-01T02:47:02;10.93;;;4.60;;
66739;SDS011;53653;52.188;8.602;2022-08-01T02:49:30;9.50;;;4.30;;
66739;SDS011;53653;52.188;8.602;2022-08-01T02:51:58;10.25;;;4.65;;
66739;SDS011;53653;52.188;8.602;2022-08-01T02:54:26;9.82;;;4.38;;
66739;SDS011;53653;52.188;8.602;2022-08-01T02:56:54;9.88;;;4.20;;
66739;SDS011;53653;52.188;8.602;2022-08-01T02:59:21;10.67;;;4.13;;
66739;SDS011;53653;52.188;8.602;2022-08-01T03:01:52;9.57;;;3.80;;
66739;SDS011;53653;52.188;8.602;2022-08-01T03:04:20;8.80;;;4.00;;
66739;SDS011;53653;52.188;8.602;2022-08-01T03:06:48;12.98;;;4.10;;
66739;SDS011;53653;52.188;8.602;2022-08-01T03:09:13;8.90;;;3.70;;
66739;SDS011;53653;52.188;8.602;2022-08-01T03:11:40;8.43;;;3.45;;
66739;SDS011;53653;52.188;8.602;2022-08-01T03:14:07;6.90;;;3.40;;
66739;SDS011;53653;52.188;8.602;2022-08-01T03:16:35;8.02;;;3.53;;
66739;SDS011;53653;52.188;8.602;2022-08-01T03:19:02;9.17;;;3.70;;
66739;SDS011;53653;52.188;8.602;2022-08-01T03:21:29;8.23;;;3.47;;
66739;SDS011;53653;52.188;8.602;2022-08-01T03:23:57;7.88;;;3.42;;
66739;SDS011;53653;52.188;8.602;2022-08-01T03:26:29;9.38;;;3.45;;
66739;SDS011;53653;52.188;8.602;2022-08-01T03:28:59;8.23;;;3.30;;
66739;SDS011;53653;52.188;8.602;2022-08-01T03:31:27;9.23;;;3.60;;
66739;SDS011;53653;52.188;8.602;2022-08-01T03:33:53;9.27;;;3.80;;
66739;SDS011;53653;52.188;8.602;2022-08-01T03:36:21;7.95;;;4.07;;
66739;SDS011;53653;52.188;8.602;2022-08-01T03:38:50;9.93;;;3.87;;
66739;SDS011;53653;52.188;8.602;2022-08-01T03:41:18;6.90;;;3.50;;
66739;SDS011;53653;52.188;8.602;2022-08-01T03:43:54;8.68;;;4.43;;
66739;SDS011;53653;52.188;8.602;2022-08-01T03:46:29;7.38;;;3.58;;
66739;SDS011;53653;52.188;8.602;2022-08-01T03:48:58;10.07;;;4.18;;
66739;SDS011;53653;52.188;8.602;2022-08-01T03:51:28;8.43;;;3.80;;
66739;SDS011;53653;52.188;8.602;2022-08-01T03:53:55;8.90;;;4.20;;
66739;SDS011;53653;52.188;8.602;2022-08-01T03:56:24;11.75;;;4.20;;
66739;SDS011;53653;52.188;8.602;2022-08-01T03:58:50;11.15;;;4.07;;
66739;SDS011;53653;52.188;8.602;2022-08-01T04:01:17;9.83;;;4.30;;
66739;SDS011;53653;52.188;8.602;2022-08-01T04:03:43;8.38;;;4.35;;
66739;SDS011;53653;52.188;8.602;2022-08-01T04:06:09;10.13;;;4.40;;
66739;SDS011;53653;52.188;8.602;2022-08-01T04:08:38;10.15;;;5.03;;
66739;SDS011;53653;52.188;8.602;2022-08-01T04:11:05;10.73;;;5.10;;
66739;SDS011;53653;52.188;8.602;2022-08-01T04:13:32;11.47;;;5.97;;
66739;SDS011;53653;52.188;8.602;2022-08-01T04:15:58;14.07;;;6.20;;
66739;SDS011;53653;52.188;8.602;2022-08-01T04:18:23;10.87;;;5.50;;
66739;SDS011;53653;52.188;8.602;2022-08-01T04:20:49;12.15;;;5.60;;
66739;SDS011;53653;52.188;8.602;2022-08-01T04:23:15;11.23;;;6.07;;
66739;SDS011;53653;52.188;8.602;2022-08-01T04:25:42;12.47;;;6.10;;
66739;SDS011;53653;52.188;8.602;2022-08-01T04:28:09;13.90;;;6.25;;
66739;SDS011;53653;52.188;8.602;2022-08-01T04:30:41;13.60;;;6.55;;
66739;SDS011;53653;52.188;8.602;2022-08-01T04:33:10;12.20;;;6.70;;
66739;SDS011;53653;52.188;8.602;2022-08-01T04:35:38;16.00;;;6.97;;
66739;SDS011;53653;52.188;8.602;2022-08-01T04:38:06;16.37;;;7.47;;
66739;SDS011;53653;52.188;8.602;2022-08-01T04:40:35;14.07;;;6.80;;
66739;SDS011;53653;52.188;8.602;2022-08-01T04:43:01;13.85;;;6.80;;
66739;SDS011;53653;52.188;8.602;2022-08-01T04:45:27;13.50;;;7.20;;
66739;SDS011;53653;52.188;8.602;2022-08-01T04:47:53;14.65;;;6.97;;
66739;SDS011;53653;52.188;8.602;2022-08-01T04:50:19;12.80;;;6.70;;
66739;SDS011;53653;52.188;8.602;2022-08-01T04:52:47;13.18;;;6.43;;
66739;SDS011;53653;52.188;8.602;2022-08-01T04:55:12;12.68;;;6.82;;
66739;SDS011;53653;52.188;8.602;2022-08-01T04:57:39;14.03;;;6.67;;
66739;SDS011;53653;52.188;8.602;2022-08-01T05:00:06;12.93;;;7.20;;
66739;SDS011;53653;52.188;8.602;2022-08-01T05:02:33;13.57;;;6.75;;
66739;SDS011;53653;52.188;8.602;2022-08-01T05:04:58;12.20;;;6.40;;
66739;SDS011;53653;52.188;8.602;2022-08-01T05:07:24;13.30;;;5.83;;
66739;SDS011;53653;52.188;8.602;2022-08-01T05:09:49;12.67;;;5.80;;
66739;SDS011;53653;52.188;8.602;2022-08-01T05:12:15;11.43;;;5.65;;
66739;SDS011;53653;52.188;8.602;2022-08-01T05:14:41;9.52;;;5.07;;
66739;SDS011;53653;52.188;8.602;2022-08-01T05:17:07;10.57;;;5.23;;
66739;SDS011;53653;52.188;8.602;2022-08-01T05:19:33;9.80;;;4.60;;
66739;SDS011;53653;52.188;8.602;2022-08-01T05:22:00;9.87;;;5.00;;
66739;SDS011;53653;52.188;8.602;2022-08-01T05:24:27;9.45;;;4.38;;
66739;SDS011;53653;52.188;8.602;2022-08-01T05:26:53;9.70;;;4.30;;
66739;SDS011;53653;52.188;8.602;2022-08-01T05:29:21;8.30;;;4.20;;
66739;SDS011;53653;52.188;8.602;2022-08-01T05:31:46;8.10;;;3.87;;
66739;SDS011;53653;52.188;8.602;2022-08-01T05:34:11;8.30;;;3.90;;
66739;SDS011;53653;52.188;8.602;2022-08-01T05:36:37;8.90;;;3.90;;
66739;SDS011;53653;52.188;8.602;2022-08-01T05:39:03;9.90;;;3.93;;
66739;SDS011;53653;52.188;8.602;2022-08-01T05:41:29;7.88;;;3.92;;
66739;SDS011;53653;52.188;8.602;2022-08-01T05:43:55;10.00;;;4.17;;
66739;SDS011;53653;52.188;8.602;2022-08-01T05:46:20;9.23;;;4.80;;
66739;SDS011;53653;52.188;8.602;2022-08-01T05:48:46;10.40;;;5.00;;
66739;SDS011;53653;52.188;8.602;2022-08-01T05:51:11;9.83;;;4.00;;
66739;SDS011;53653;52.188;8.602;2022-08-01T05:53:37;8.23;;;4.00;;
66739;SDS011;53653;52.188;8.602;2022-08-01T05:56:02;8.38;;;3.67;;
66739;SDS011;53653;52.188;8.602;2022-08-01T05:58:27;8.90;;;4.13;;
66739;SDS011;53653;52.188;8.602;2022-08-01T06:00:53;8.30;;;4.33;;
66739;SDS011;53653;52.188;8.602;2022-08-01T06:03:18;9.35;;;4.38;;
66739;SDS011;53653;52.188;8.602;2022-08-01T06:05:44;9.10;;;4.03;;
66739;SDS011;53653;52.188;8.602;2022-08-01T06:08:09;9.20;;;4.30;;
66739;SDS011;53653;52.188;8.602;2022-08-01T06:10:35;8.40;;;3.77;;
66739;SDS011;53653;52.188;8.602;2022-08-01T06:13:01;9.60;;;4.07;;
66739;SDS011;53653;52.188;8.602;2022-08-01T06:15:28;9.60;;;4.28;;
66739;SDS011;53653;52.188;8.602;2022-08-01T06:17:54;8.38;;;4.18;;
66739;SDS011;53653;52.188;8.602;2022-08-01T06:20:20;8.63;;;4.20;;
66739;SDS011;53653;52.188;8.602;2022-08-01T06:22:45;8.98;;;4.25;;
66739;SDS011;53653;52.188;8.602;2022-08-01T06:25:11;8.77;;;3.93;;
66739;SDS011;53653;52.188;8.602;2022-08-01T06:27:36;8.23;;;3.80;;
66739;SDS011;53653;52.188;8.602;2022-08-01T06:30:02;7.87;;;3.40;;
66739;SDS011;53653;52.188;8.602;2022-08-01T06:32:29;9.15;;;3.80;;
66739;SDS011;53653;52.188;8.602;2022-08-01T06:34:54;8.35;;;3.63;;
66739;SDS011;53653;52.188;8.602;2022-08-01T06:37:20;6.83;;;3.23;;
66739;SDS011;53653;52.188;8.602;2022-08-01T06:39:46;8.68;;;3.53;;
66739;SDS011;53653;52.188;8.602;2022-08-01T06:42:11;8.17;;;3.17;;
66739;SDS011;53653;52.188;8.602;2022-08-01T06:44:37;8.93;;;3.25;;
66739;SDS011;53653;52.188;8.602;2022-08-01T06:47:03;6.90;;;3.10;;
66739;SDS011;53653;52.188;8.602;2022-08-01T06:49:28;8.57;;;3.55;;
66739;SDS011;53653;52.188;8.602;2022-08-01T06:51:54;6.57;;;3.00;;
66739;SDS011;53653;52.188;8.602;2022-08-01T06:54:19;6.40;;;2.83;;
66739;SDS011;53653;52.188;8.602;2022-08-01T06:56:46;6.82;;;2.60;;
66739;SDS011;53653;52.188;8.602;2022-08-01T06:59:11;8.70;;;2.83;;
66739;SDS011;53653;52.188;8.602;2022-08-01T07:01:36;11.20;;;3.20;;
66739;SDS011;53653;52.188;8.602;2022-08-01T07:04:02;8.05;;;3.20;;
66739;SDS011;53653;52.188;8.602;2022-08-01T07:06:28;8.70;;;3.30;;
66739;SDS011;53653;52.188;8.602;2022-08-01T07:08:53;7.47;;;2.90;;
66739;SDS011;53653;52.188;8.602;2022-08-01T07:11:19;6.13;;;2.53;;
66739;SDS011;53653;52.188;8.602;2022-08-01T07:13:46;6.28;;;2.60;;
66739;SDS011;53653;52.188;8.602;2022-08-01T07:16:12;8.80;;;2.50;;
66739;SDS011;53653;52.188;8.602;2022-08-01T07:18:38;6.90;;;2.93;;
66739;SDS011;53653;52.188;8.602;2022-08-01T07:21:04;6.78;;;3.20;;
66739;SDS011;53653;52.188;8.602;2022-08-01T07:23:29;6.17;;;2.70;;
66739;SDS011;53653;52.188;8.602;2022-08-01T07:25:55;7.73;;;2.53;;
66739;SDS011;53653;52.188;8.602;2022-08-01T07:28:20;6.63;;;2.60;;
66739;SDS011;53653;52.188;8.602;2022-08-01T07:30:46;7.03;;;2.83;;
66739;SDS011;53653;52.188;8.602;2022-08-01T07:33:11;6.83;;;3.00;;
66739;SDS011;53653;52.188;8.602;2022-08-01T07:35:37;8.07;;;2.65;;
66739;SDS011;53653;52.188;8.602;2022-08-01T07:38:04;7.25;;;2.50;;
66739;SDS011;53653;52.188;8.602;2022-08-01T07:40:30;6.80;;;2.30;;
66739;SDS011;53653;52.188;8.602;2022-08-01T07:42:56;5.57;;;2.10;;
66739;SDS011;53653;52.188;8.602;2022-08-01T07:45:21;5.90;;;2.70;;
66739;SDS011;53653;52.188;8.602;2022-08-01T07:47:47;7.33;;;2.30;;
66739;SDS011;53653;52.188;8.602;2022-08-01T07:50:14;5.78;;;2.45;;
66739;SDS011;53653;52.188;8.602;2022-08-01T07:52:40;8.05;;;2.38;;
66739;SDS011;53653;52.188;8.602;2022-08-01T07:55:06;7.40;;;2.40;;
66739;SDS011;53653;52.188;8.602;2022-08-01T07:57:32;6.23;;;2.67;;
66739;SDS011;53653;52.188;8.602;2022-08-01T07:59:58;6.38;;;2.20;;
66739;SDS011;53653;52.188;8.602;2022-08-01T08:02:23;4.80;;;1.50;;
66739;SDS011;53653;52.188;8.602;2022-08-01T08:04:48;5.03;;;1.70;;
66739;SDS011;53653;52.188;8.602;2022-08-01T08:07:14;5.43;;;1.27;;
66739;SDS011;53653;52.188;8.602;2022-08-01T08:09:40;6.50;;;1.65;;
66739;SDS011;53653;52.188;8.602;2022-08-01T08:12:05;4.47;;;1.50;;
66739;SDS011;53653;52.188;8.602;2022-08-01T08:14:31;5.22;;;1.30;;
66739;SDS011;53653;52.188;8.602;2022-08-01T08:16:56;6.23;;;1.13;;
66739;SDS011;53653;52.188;8.602;2022-08-01T08:19:22;4.10;;;1.10;;
66739;SDS011;53653;52.188;8.602;2022-08-01T08:21:47;5.77;;;1.40;;
66739;SDS011;53653;52.188;8.602;2022-08-01T08:24:13;4.90;;;1.50;;
66739;SDS011;53653;52.188;8.602;2022-08-01T08:26:44;5.15;;;1.20;;
66739;SDS011;53653;52.188;8.602;2022-08-01T08:29:10;4.60;;;1.30;;
66739;SDS011;53653;52.188;8.602;2022-08-01T08:31:36;5.73;;;1.47;;
66739;SDS011;53653;52.188;8.602;2022-08-01T08:34:01;4.20;;;1.40;;
66739;SDS011;53653;52.188;8.602;2022-08-01T08:36:27;5.07;;;1.40;;
66739;SDS011;53653;52.188;8.602;2022-08-01T08:38:52;5.07;;;1.30;;
66739;SDS011;53653;52.188;8.602;2022-08-01T08:41:18;4.70;;;1.30;;
66739;SDS011;53653;52.188;8.602;2022-08-01T08:43:43;4.90;;;1.60;;
66739;SDS011;53653;52.188;8.602;2022-08-01T08:46:09;4.30;;;1.47;;
66739;SDS011;53653;52.188;8.602;2022-08-01T08:48:37;4.30;;;1.48;;
66739;SDS011;53653;52.188;8.602;2022-08-01T08:51:04;4.63;;;1.30;;
66739;SDS011;53653;52.188;8.602;2022-08-01T08:53:30;5.27;;;1.50;;
66739;SDS011;53653;52.188;8.602;2022-08-01T08:55:58;5.70;;;1.33;;
66739;SDS011;53653;52.188;8.602;2022-08-01T08:58:24;4.07;;;1.40;;
66739;SDS011;53653;52.188;8.602;2022-08-01T09:00:51;6.72;;;2.25;;
66739;SDS011;53653;52.188;8.602;2022-08-01T09:03:18;6.30;;;1.75;;
66739;SDS011;53653;52.188;8.602;2022-08-01T09:05:44;6.37;;;1.20;;
66739;SDS011;53653;52.188;8.602;2022-08-01T09:08:09;4.40;;;1.30;;
66739;SDS011;53653;52.188;8.602;2022-08-01T09:10:35;4.50;;;1.30;;
66739;SDS011;53653;52.188;8.602;2022-08-01T09:13:08;4.97;;;1.20;;
66739;SDS011;53653;52.188;8.602;2022-08-01T09:15:45;5.13;;;1.40;;
66739;SDS011;53653;52.188;8.602;2022-08-01T09:18:32;4.82;;;1.48;;
66739;SDS011;53653;52.188;8.602;2022-08-01T09:26:29;4.72;;;1.63;;
66739;SDS011;53653;52.188;8.602;2022-08-01T09:28:58;4.28;;;1.35;;
66739;SDS011;53653;52.188;8.602;2022-08-01T09:31:24;5.97;;;1.70;;
66739;SDS011;53653;52.188;8.602;2022-08-01T09:33:53;5.07;;;1.43;;
66739;SDS011;53653;52.188;8.602;2022-08-01T09:36:21;6.20;;;1.58;;
66739;SDS011;53653;52.188;8.602;2022-08-01T09:38:48;6.47;;;1.60;;
66739;SDS011;53653;52.188;8.602;2022-08-01T09:41:14;4.45;;;1.50;;
66739;SDS011;53653;52.188;8.602;2022-08-01T09:43:40;6.43;;;1.33;;
66739;SDS011;53653;52.188;8.602;2022-08-01T09:46:13;4.43;;;1.23;;
66739;SDS011;53653;52.188;8.602;2022-08-01T09:48:39;6.53;;;1.80;;
66739;SDS011;53653;52.188;8.602;2022-08-01T09:51:27;6.85;;;1.70;;
66739;SDS011;53653;52.188;8.602;2022-08-01T09:53:59;5.53;;;1.60;;
66739;SDS011;53653;52.188;8.602;2022-08-01T09:56:26;6.30;;;1.90;;
66739;SDS011;53653;52.188;8.602;2022-08-01T09:59:00;7.67;;;1.80;;
66739;SDS011;53653;52.188;8.602;2022-08-01T10:01:26;5.38;;;1.95;;
66739;SDS011;53653;52.188;8.602;2022-08-01T10:06:30;8.57;;;2.00;;
66739;SDS011;53653;52.188;8.602;2022-08-01T10:08:55;6.03;;;2.10;;
66739;SDS011;53653;52.188;8.602;2022-08-01T10:11:21;9.23;;;2.50;;
66739;SDS011;53653;52.188;8.602;2022-08-01T10:13:47;8.85;;;2.78;;
66739;SDS011;53653;52.188;8.602;2022-08-01T10:16:13;7.83;;;3.20;;
66739;SDS011;53653;52.188;8.602;2022-08-01T10:18:40;7.68;;;2.72;;
66739;SDS011;53653;52.188;8.602;2022-08-01T10:21:07;7.15;;;2.58;;
66739;SDS011;53653;52.188;8.602;2022-08-01T10:23:35;5.47;;;2.60;;
66739;SDS011;53653;52.188;8.602;2022-08-01T10:26:01;6.75;;;3.08;;
66739;SDS011;53653;52.188;8.602;2022-08-01T10:28:29;9.37;;;3.40;;
66739;SDS011;53653;52.188;8.602;2022-08-01T10:30:59;6.80;;;3.20;;
66739;SDS011;53653;52.188;8.602;2022-08-01T10:33:26;8.07;;;3.63;;
66739;SDS011;53653;52.188;8.602;2022-08-01T10:35:54;8.20;;;3.50;;
66739;SDS011;53653;52.188;8.602;2022-08-01T10:38:20;7.67;;;3.40;;
66739;SDS011;53653;52.188;8.602;2022-08-01T10:40:45;9.30;;;3.83;;
66739;SDS011;53653;52.188;8.602;2022-08-01T10:43:11;7.90;;;4.10;;
66739;SDS011;53653;52.188;8.602;2022-08-01T10:45:41;6.80;;;3.40;;
66739;SDS011;53653;52.188;8.602;2022-08-01T10:48:12;10.27;;;4.73;;
66739;SDS011;53653;52.188;8.602;2022-08-01T10:50:44;9.02;;;4.63;;
66739;SDS011;53653;52.188;8.602;2022-08-01T11:01:22;8.33;;;4.17;;
66739;SDS011;53653;52.188;8.602;2022-08-01T11:08:57;7.88;;;4.82;;
66739;SDS011;53653;52.188;8.602;2022-08-01T11:11:23;12.05;;;4.70;;
66739;SDS011;53653;52.188;8.602;2022-08-01T11:14:05;9.07;;;5.43;;
66739;SDS011;53653;52.188;8.602;2022-08-01T11:16:38;10.77;;;6.32;;
66739;SDS011;53653;52.188;8.602;2022-08-01T11:19:06;11.43;;;6.20;;
66739;SDS011;53653;52.188;8.602;2022-08-01T11:32:45;8.43;;;4.88;;
66739;SDS011;53653;52.188;8.602;2022-08-01T11:35:11;9.77;;;5.07;;
66739;SDS011;53653;52.188;8.602;2022-08-01T11:37:36;8.40;;;4.70;;
66739;SDS011;53653;52.188;8.602;2022-08-01T11:40:15;8.23;;;4.80;;
66739;SDS011;53653;52.188;8.602;2022-08-01T11:42:41;7.47;;;4.27;;
66739;SDS011;53653;52.188;8.602;2022-08-01T11:45:07;8.63;;;4.10;;
66739;SDS011;53653;52.188;8.602;2022-08-01T11:47:47;7.93;;;4.20;;
66739;SDS011;53653;52.188;8.602;2022-08-01T11:50:30;9.60;;;5.57;;
66739;SDS011;53653;52.188;8.602;2022-08-01T11:52:57;7.25;;;4.30;;
66739;SDS011;53653;52.188;8.602;2022-08-01T11:55:24;10.10;;;4.22;;
66739;SDS011;53653;52.188;8.602;2022-08-01T11:57:50;10.32;;;4.20;;
66739;SDS011;53653;52.188;8.602;2022-08-01T12:00:24;11.50;;;4.05;;
66739;SDS011;53653;52.188;8.602;2022-08-01T12:02:56;7.17;;;3.93;;
66739;SDS011;53653;52.188;8.602;2022-08-01T12:05:23;7.28;;;4.30;;
66739;SDS011;53653;52.188;8.602;2022-08-01T12:07:50;8.23;;;3.75;;
66739;SDS011;53653;52.188;8.602;2022-08-01T12:10:16;8.00;;;4.20;;
66739;SDS011;53653;52.188;8.602;2022-08-01T12:15:20;7.28;;;4.00;;
66739;SDS011;53653;52.188;8.602;2022-08-01T12:17:51;8.98;;;3.83;;
66739;SDS011;53653;52.188;8.602;2022-08-01T12:20:22;6.90;;;3.70;;
66739;SDS011;53653;52.188;8.602;2022-08-01T12:22:55;8.63;;;3.87;;
66739;SDS011;53653;52.188;8.602;2022-08-01T12:25:21;9.18;;;3.92;;
66739;SDS011;53653;52.188;8.602;2022-08-01T12:27:47;8.00;;;3.20;;
66739;SDS011;53653;52.188;8.602;2022-08-01T12:30:17;7.20;;;3.55;;
66739;SDS011;53653;52.188;8.602;2022-08-01T12:32:47;6.93;;;3.70;;
66739;SDS011;53653;52.188;8.602;2022-08-01T12:35:14;6.75;;;3.55;;
66739;SDS011;53653;52.188;8.602;2022-08-01T12:37:47;6.55;;;3.45;;
66739;SDS011;53653;52.188;8.602;2022-08-01T12:40:18;7.25;;;3.40;;
66739;SDS011;53653;52.188;8.602;2022-08-01T12:42:48;7.05;;;3.67;;
66739;SDS011;53653;52.188;8.602;2022-08-01T12:45:16;7.03;;;3.77;;
66739;SDS011;53653;52.188;8.602;2022-08-01T12:47:43;8.52;;;4.05;;
66739;SDS011;53653;52.188;8.602;2022-08-01T12:50:13;8.88;;;4.00;;
66739;SDS011;53653;52.188;8.602;2022-08-01T12:52:41;7.97;;;3.60;;
66739;SDS011;53653;52.188;8.602;2022-08-01T12:55:17;7.53;;;3.53;;
66739;SDS011;53653;52.188;8.602;2022-08-01T12:57:44;7.60;;;3.40;;
66739;SDS011;53653;52.188;8.602;2022-08-01T13:00:16;7.15;;;3.55;;
66739;SDS011;53653;52.188;8.602;2022-08-01T13:02:46;9.80;;;3.95;;
66739;SDS011;53653;52.188;8.602;2022-08-01T13:05:12;6.72;;;3.42;;
66739;SDS011;53653;52.188;8.602;2022-08-01T13:07:40;10.98;;;3.83;;
66739;SDS011;53653;52.188;8.602;2022-08-01T13:10:11;8.13;;;3.83;;
66739;SDS011;53653;52.188;8.602;2022-08-01T13:12:37;7.30;;;3.55;;
66739;SDS011;53653;52.188;8.602;2022-08-01T13:18:21;9.82;;;3.92;;
66739;SDS011;53653;52.188;8.602;2022-08-01T13:20:50;10.27;;;3.80;;
66739;SDS011;53653;52.188;8.602;2022-08-01T13:23:33;9.50;;;4.00;;
66739;SDS011;53653;52.188;8.602;2022-08-01T13:25:58;9.20;;;4.25;;
66739;SDS011;53653;52.188;8.602;2022-08-01T13:28:25;8.97;;;4.20;;
66739;SDS011;53653;52.188;8.602;2022-08-01T13:33:20;9.37;;;4.10;;
66739;SDS011;53653;52.188;8.602;2022-08-01T13:35:45;9.35;;;4.40;;
66739;SDS011;53653;52.188;8.602;2022-08-01T13:38:12;10.27;;;4.30;;
66739;SDS011;53653;52.188;8.602;2022-08-01T13:40:38;10.73;;;4.70;;
66739;SDS011;53653;52.188;8.602;2022-08-01T13:43:03;9.70;;;5.00;;
66739;SDS011;53653;52.188;8.602;2022-08-01T13:45:28;10.30;;;4.77;;
66739;SDS011;53653;52.188;8.602;2022-08-01T13:47:54;10.43;;;4.83;;
66739;SDS011;53653;52.188;8.602;2022-08-01T13:50:19;12.10;;;4.53;;
66739;SDS011;53653;52.188;8.602;2022-08-01T13:52:45;12.67;;;5.13;;
66739;SDS011;53653;52.188;8.602;2022-08-01T13:55:10;13.30;;;4.83;;
66739;SDS011;53653;52.188;8.602;2022-08-01T13:57:35;10.30;;;4.28;;
66739;SDS011;53653;52.188;8.602;2022-08-01T14:00:01;8.73;;;3.97;;
66739;SDS011;53653;52.188;8.602;2022-08-01T14:02:28;15.15;;;4.60;;
66739;SDS011;53653;52.188;8.602;2022-08-01T14:04:53;10.77;;;4.57;;
66739;SDS011;53653;52.188;8.602;2022-08-01T14:07:20;13.73;;;4.72;;
66739;SDS011;53653;52.188;8.602;2022-08-01T14:09:46;9.85;;;4.03;;
66739;SDS011;53653;52.188;8.602;2022-08-01T14:12:11;11.07;;;3.97;;
66739;SDS011;53653;52.188;8.602;2022-08-01T14:14:37;9.53;;;3.97;;
66739;SDS011;53653;52.188;8.602;2022-08-01T14:17:03;10.93;;;3.45;;
66739;SDS011;53653;52.188;8.602;2022-08-01T14:19:28;10.57;;;3.60;;
66739;SDS011;53653;52.188;8.602;2022-08-01T14:21:54;11.63;;;4.17;;
66739;SDS011;53653;52.188;8.602;2022-08-01T14:24:21;10.73;;;3.93;;
66739;SDS011;53653;52.188;8.602;2022-08-01T14:26:47;9.52;;;3.65;;
66739;SDS011;53653;52.188;8.602;2022-08-01T14:29:12;8.57;;;3.47;;
66739;SDS011;53653;52.188;8.602;2022-08-01T14:31:38;12.07;;;3.70;;
66739;SDS011;53653;52.188;8.602;2022-08-01T14:34:03;7.78;;;3.75;;
66739;SDS011;53653;52.188;8.602;2022-08-01T14:36:29;13.90;;;3.83;;
66739;SDS011;53653;52.188;8.602;2022-08-01T14:38:54;9.30;;;3.53;;
66739;SDS011;53653;52.188;8.602;2022-08-01T14:41:19;10.90;;;3.40;;
66739;SDS011;53653;52.188;8.602;2022-08-01T14:43:45;8.95;;;3.38;;
66739;SDS011;53653;52.188;8.602;2022-08-01T14:46:10;10.20;;;3.20;;
66739;SDS011;53653;52.188;8.602;2022-08-01T14:48:37;9.95;;;3.35;;
66739;SDS011;53653;52.188;8.602;2022-08-01T14:51:02;9.07;;;3.10;;
66739;SDS011;53653;52.188;8.602;2022-08-01T14:53:29;11.70;;;3.83;;
66739;SDS011;53653;52.188;8.602;2022-08-01T14:55:55;11.95;;;3.67;;
66739;SDS011;53653;52.188;8.602;2022-08-01T14:58:20;15.53;;;3.60;;
66739;SDS011;53653;52.188;8.602;2022-08-01T15:00:46;16.37;;;5.53;;
66739;SDS011;53653;52.188;8.602;2022-08-01T15:03:12;13.07;;;3.83;;
66739;SDS011;53653;52.188;8.602;2022-08-01T15:05:37;12.17;;;3.90;;
66739;SDS011;53653;52.188;8.602;2022-08-01T15:08:03;12.18;;;3.70;;
66739;SDS011;53653;52.188;8.602;2022-08-01T15:10:30;10.93;;;3.90;;
66739;SDS011;53653;52.188;8.602;2022-08-01T15:12:57;10.63;;;3.38;;
66739;SDS011;53653;52.188;8.602;2022-08-01T15:15:24;14.00;;;4.00;;
66739;SDS011;53653;52.188;8.602;2022-08-01T15:17:50;10.90;;;3.17;;
66739;SDS011;53653;52.188;8.602;2022-08-01T15:20:17;12.68;;;3.70;;
66739;SDS011;53653;52.188;8.602;2022-08-01T15:22:43;9.13;;;3.40;;
66739;SDS011;53653;52.188;8.602;2022-08-01T15:25:08;10.30;;;3.80;;
66739;SDS011;53653;52.188;8.602;2022-08-01T15:27:34;8.47;;;2.80;;
66739;SDS011;53653;52.188;8.602;2022-08-01T15:30:00;10.23;;;3.10;;
66739;SDS011;53653;52.188;8.602;2022-08-01T15:32:25;8.00;;;3.03;;
66739;SDS011;53653;52.188;8.602;2022-08-01T15:34:50;9.57;;;3.27;;
66739;SDS011;53653;52.188;8.602;2022-08-01T15:37:16;10.18;;;3.72;;